Ana Sayfa
METAR-TAF:

METAR-TAF

Havaalanları :

Grand Turk, Turks ve Caicos Adaları

Enlem: 21-26-40N, Boylam: 071-08-32W, yükseklik: 4 m

Güncel hava durumu gözlemi

Rapor saat 03:00 UTC de 3 saat ve 52 dakika önce yapıldı.
Rüzgar doğu/kuzeydoğudan 12 kt
Sıcaklık 30°C
Nem 75%
Basınç 1017 hPa
Görüş mesafesi 10 km veya daha fazla
1500 ft yükseklikte parçalı bulutlu

METAR: MBGT 160300Z 07012KT 9999 SCT015 30/25 Q1017

Saat: 02:52 (06:52 UTC)

Tahmin

Rapor saat 05:00 UTC de 1 saat ve 52 dakika önce yapıldı.
Ayın 16'si saat 06 UTC'den ayın 17'si saat 06 UTC'ye kadar geçerli Tahmin
Rüzgar doğudan 15 kt
Görüş mesafesi 10 km veya daha fazla
2000 ft yükseklikte parçalı bulutlu

TAF: MBGT 160500Z 1606/1706 09015KT 9999 SCT020

4.000'den fazla havaalanı için hava durumu gözlemleri ve tahminleri (METAR ve TAF raporları).

Kullanılabilir istasyonlar harita üzerinde sarı ve kırmızı noktalarla gösterilir.

İstasyonun adını görmek için fareyi noktanın üzerinde gezdirin.

Sonrasında hava gözlem ve tahminlerini görmek için tıklayın.

Haritayı değiştirmek için: yaklaştırmak için siyah artı işaretli yeşil düğmeye ve uzaklaştırmak için de eksi işaretli düğmeye hızla tıklayın; bitişik haritalar için yeşil okları kullanın.


METAR-TAF: